Главная страница
METAR-TAF:

METAR-TAF

Аэропорты :

Констанца, Румыния

широта: 44-20N, долгота: 028-26E, высота над уровнем моря: 97 м

Текущие метеонаблюдения

Эта сводка был подготовлена 11 минут назад, в 03:00 UTC
Ветер 10 Узел от северный
Температура 20°C
Влажность 68%
Давление 1012 hPa
Видимость 10 км и более
Нет облачности ниже 1500 м, и нет кучево-дождевой облачности

METAR: LRCK 170300Z 36010KT CAVOK 20/14 Q1012 NOSIG

Время: 06:11 (03:11 UTC)

Прогноз

Эта сводка был подготовлена 4 часа и 11 минут назад, в 23:00 UTC
Прогноз действительный с 17-го 00 UTC до 17-го 24 UTC
Ветер 7 Узел от северо-западный
Видимость 10 км и более
Нет облачности ниже 1500 м, и нет кучево-дождевой облачности
изменения
С 17-го 06 UTC до 17-го 08 UTC
Ветер 10 Узел от восточно-северо-восточный
изменения
С 17-го 17 UTC до 17-го 19 UTC
Ветер 7 Узел от северный

TAF: LRCK 162300Z 1700/1724 32007KT CAVOK BECMG 1706/1708 07010KT BECMG 1717/1719 35007KT

Метеонаблюдения и прогнозы для более 4000 аэропортов (сводки METAR и TAF).

Имеющиеся станции представлены на карте желтыми и красными точками.

Чтобы увидеть название станции, наведите на нее мышь.

Затем щелкните, чтобы увидеть метеонаблюдения и метеопрогнозы.

Управление картой: чтобы увеличить масштаб, щелкните зеленые кнопки с черным крестиком; чтобы уменьшить масштаб, щелкните зеленую кнопку с тире; для просмотра соседних карт щелкайте зеленые стрелки.


METAR-TAF: